Time;durP1;ratioP1;P1;durP2;ratioP2;P2;SDS_P1;SDS_P2;PMS_P1;PMS_P2;Temp;Humidity;BMP_temperature;BMP_pressure;BME280_temperature;BME280_humidity;BME280_pressure;Samples;Min_cycle;Max_cycle;Signal;HPM_P1;HPM_P2
2022/11/19 00:01:19;;;;;;;1.38;0.43;;;;;;;;;;5093939;28;20039;-68
2022/11/19 00:03:45;;;;;;;0.47;0.20;;;;;;;;;;5094341;28;20107;-69
2022/11/19 00:06:28;;;;;;;0.70;0.20;;;;;;;;;;5094362;28;20119;-68
2022/11/19 00:08:54;;;;;;;0.40;0.25;;;;;;;;;;5109889;28;20465;-70
2022/11/19 00:14:05;;;;;;;0.70;0.35;;;;;;;;;;5094148;28;20111;-69
2022/11/19 00:16:34;;;;;;;0.82;0.28;;;;;;;;;;5094066;28;20180;-69
2022/11/19 00:18:59;;;;;;;0.73;0.40;;;;;;;;;;5093927;28;20477;-70
2022/11/19 00:21:25;;;;;;;0.95;0.30;;;;;;;;;;5093941;28;20019;-69
2022/11/19 00:23:53;;;;;;;1.88;0.30;;;;;;;;;;5093925;28;20050;-68
2022/11/19 00:26:19;;;;;;;1.77;0.20;;;;;;;;;;5109503;28;20382;-68
2022/11/19 00:28:44;;;;;;;0.73;0.40;;;;;;;;;;5109061;28;20016;-67
2022/11/19 00:31:11;;;;;;;1.60;0.30;;;;;;;;;;5093327;28;20012;-69
2022/11/19 00:33:37;;;;;;;2.30;0.38;;;;;;;;;;5093675;28;20020;-68
2022/11/19 00:36:04;;;;;;;1.17;0.20;;;;;;;;;;5109244;28;20022;-70
2022/11/19 00:38:30;;;;;;;0.30;0.10;;;;;;;;;;5109265;28;20460;-68
2022/11/19 00:40:56;;;;;;;0.60;0.30;;;;;;;;;;5109335;28;20012;-68
2022/11/19 00:46:05;;;;;;;4.53;0.20;;;;;;;;;;5093608;28;20085;-66
2022/11/19 00:48:31;;;;;;;0.17;0.10;;;;;;;;;;5109192;28;20016;-66
2022/11/19 00:50:56;;;;;;;1.45;0.30;;;;;;;;;;5093521;28;20376;-64
2022/11/19 00:53:22;;;;;;;0.43;0.20;;;;;;;;;;5093267;28;20028;-68
2022/11/19 00:55:47;;;;;;;3.47;1.25;;;;;;;;;;5092910;28;20050;-68
2022/11/19 00:58:12;;;;;;;1.05;0.20;;;;;;;;;;5092950;28;20365;-69
2022/11/19 01:00:38;;;;;;;0.50;0.22;;;;;;;;;;5109038;28;20016;-68
2022/11/19 01:03:04;;;;;;;0.70;0.30;;;;;;;;;;5093196;28;20027;-70
2022/11/19 01:05:29;;;;;;;1.20;0.40;;;;;;;;;;5093141;28;20019;-68
2022/11/19 01:07:54;;;;;;;3.00;0.20;;;;;;;;;;5093057;28;20465;-69
2022/11/19 01:10:20;;;;;;;1.38;0.25;;;;;;;;;;5093221;28;20017;-68
2022/11/19 01:15:29;;;;;;;2.60;0.30;;;;;;;;;;5092939;28;20068;-68
2022/11/19 01:17:55;;;;;;;0.88;0.40;;;;;;;;;;5108424;28;20396;-70
2022/11/19 01:20:20;;;;;;;1.60;0.40;;;;;;;;;;5092998;28;20461;-70
2022/11/19 01:22:45;;;;;;;1.02;0.40;;;;;;;;;;5092338;28;20027;-69
2022/11/19 01:25:11;;;;;;;1.15;0.25;;;;;;;;;;5092579;28;20008;-68
2022/11/19 01:27:36;;;;;;;2.35;0.68;;;;;;;;;;5092860;28;20020;-69
2022/11/19 01:30:02;;;;;;;2.08;0.25;;;;;;;;;;5108498;28;20392;-69
2022/11/19 01:32:28;;;;;;;1.25;0.30;;;;;;;;;;5092586;28;20021;-68
2022/11/19 01:34:53;;;;;;;0.55;0.30;;;;;;;;;;5092518;28;20467;-68
2022/11/19 01:37:18;;;;;;;1.55;0.43;;;;;;;;;;5107873;28;20058;-68
2022/11/19 01:39:44;;;;;;;10.32;0.50;;;;;;;;;;5092327;28;20016;-69
2022/11/19 01:42:48;;;;;;;0.50;0.47;;;;;;;;;;5107852;28;20020;-68
2022/11/19 01:45:04;;;;;;;0.88;0.40;;;;;;;;;;5091949;28;20081;-68
2022/11/19 01:47:30;;;;;;;0.70;0.30;;;;;;;;;;5092495;28;20020;-68
2022/11/19 01:49:55;;;;;;;0.47;0.22;;;;;;;;;;5092670;28;20027;-68
2022/11/19 01:52:21;;;;;;;1.48;0.20;;;;;;;;;;5092566;28;20108;-70
2022/11/19 01:54:49;;;;;;;3.55;0.22;;;;;;;;;;5092671;28;20035;-67
2022/11/19 01:57:15;;;;;;;1.55;0.43;;;;;;;;;;5091891;28;20059;-68
2022/11/19 01:59:42;;;;;;;0.17;0.10;;;;;;;;;;5092419;28;20031;-69
2022/11/19 02:02:07;;;;;;;0.93;0.40;;;;;;;;;;5107760;28;20051;-70
2022/11/19 02:04:34;;;;;;;0.70;0.20;;;;;;;;;;5092026;28;20048;-68
2022/11/19 02:07:00;;;;;;;0.75;0.20;;;;;;;;;;5107620;28;20099;-69
2022/11/19 02:09:26;;;;;;;0.60;0.20;;;;;;;;;;5092469;28;20482;-68
2022/11/19 02:12:01;;;;;;;1.00;0.32;;;;;;;;;;5092170;28;20024;-67
2022/11/19 02:14:45;;;;;;;1.40;0.57;;;;;;;;;;5092460;28;20043;-68
2022/11/19 02:17:13;;;;;;;1.27;0.40;;;;;;;;;;5091655;28;20039;-69
2022/11/19 02:20:02;;;;;;;1.00;0.35;;;;;;;;;;5092340;28;20023;-68
2022/11/19 02:22:43;;;;;;;2.78;0.20;;;;;;;;;;5107488;28;20020;-68
2022/11/19 02:25:11;;;;;;;1.52;0.32;;;;;;;;;;5091804;28;20020;-68
2022/11/19 02:28:00;;;;;;;1.67;0.28;;;;;;;;;;5091899;28;20020;-68
2022/11/19 02:30:27;;;;;;;1.20;0.30;;;;;;;;;;5091911;28;20031;-66
2022/11/19 02:32:57;;;;;;;1.77;0.40;;;;;;;;;;5107467;28;20035;-69
2022/11/19 02:35:28;;;;;;;2.30;0.20;;;;;;;;;;5092065;28;20024;-67
2022/11/19 02:38:03;;;;;;;2.33;0.70;;;;;;;;;;5092172;28;20039;-68
2022/11/19 02:40:40;;;;;;;1.45;0.40;;;;;;;;;;5107627;28;20024;-66
2022/11/19 02:43:27;;;;;;;1.50;0.22;;;;;;;;;;5091764;28;20055;-68
2022/11/19 02:45:57;;;;;;;0.90;0.30;;;;;;;;;;5091880;28;20035;-68
2022/11/19 02:48:26;;;;;;;0.85;0.22;;;;;;;;;;5091603;28;20024;-67
2022/11/19 02:50:53;;;;;;;0.60;0.20;;;;;;;;;;5092013;28;20031;-68
2022/11/19 02:53:18;;;;;;;0.70;0.25;;;;;;;;;;5091365;28;20484;-68
2022/11/19 02:56:09;;;;;;;3.72;0.57;;;;;;;;;;5093941;28;20077;-68
2022/11/19 03:06:44;;;;;;;0.77;0.20;;;;;;;;;;5095587;28;20074;-67
2022/11/19 03:09:10;;;;;;;1.77;0.28;;;;;;;;;;5110790;28;20036;-68
2022/11/19 03:11:35;;;;;;;0.60;0.20;;;;;;;;;;5095465;28;20051;-69
2022/11/19 03:17:30;;;;;;;0.40;0.20;;;;;;;;;;5095033;28;20038;-68
2022/11/19 03:20:00;;;;;;;0.57;0.52;;;;;;;;;;5095432;28;20023;-66
2022/11/19 03:22:31;;;;;;;1.33;0.35;;;;;;;;;;5093804;28;20074;-66
2022/11/19 03:24:59;;;;;;;2.35;0.30;;;;;;;;;;5110544;28;20012;-67
2022/11/19 03:27:26;;;;;;;0.60;0.20;;;;;;;;;;5110769;28;20023;-68
2022/11/19 03:29:54;;;;;;;0.32;0.15;;;;;;;;;;5094817;28;20027;-68
2022/11/19 03:32:26;;;;;;;1.50;0.30;;;;;;;;;;5110385;28;20088;-69
2022/11/19 03:34:55;;;;;;;0.77;0.30;;;;;;;;;;5094728;28;20024;-69
2022/11/19 03:37:22;;;;;;;0.52;0.28;;;;;;;;;;5094628;28;20028;-67
2022/11/19 03:39:48;;;;;;;1.95;0.30;;;;;;;;;;5094674;28;20044;-67
2022/11/19 03:42:15;;;;;;;0.73;0.40;;;;;;;;;;5094592;28;20047;-67
2022/11/19 03:44:51;;;;;;;1.25;0.20;;;;;;;;;;5093165;28;20119;-68
2022/11/19 03:47:21;;;;;;;0.85;0.20;;;;;;;;;;5110122;28;20318;-68
2022/11/19 03:49:51;;;;;;;0.68;0.13;;;;;;;;;;5110281;28;20438;-68
2022/11/19 03:52:17;;;;;;;0.85;0.35;;;;;;;;;;5094545;28;20020;-67
2022/11/19 03:54:43;;;;;;;0.60;0.20;;;;;;;;;;5094361;28;20437;-66
2022/11/19 03:57:10;;;;;;;0.50;0.20;;;;;;;;;;5094008;28;20098;-69
2022/11/19 03:59:36;;;;;;;2.25;0.30;;;;;;;;;;5110110;28;20040;-68
2022/11/19 04:02:03;;;;;;;0.93;0.20;;;;;;;;;;5094354;28;20023;-69
2022/11/19 04:04:36;;;;;;;1.15;0.40;;;;;;;;;;5094377;28;20024;-67
2022/11/19 04:07:18;;;;;;;1.25;0.38;;;;;;;;;;5093591;28;20016;-68
2022/11/19 04:09:43;;;;;;;0.22;0.10;;;;;;;;;;5094327;28;20440;-69
2022/11/19 04:12:19;;;;;;;0.55;0.40;;;;;;;;;;5094187;28;20055;-67
2022/11/19 04:14:44;;;;;;;0.68;0.20;;;;;;;;;;5094120;28;20046;-67
2022/11/19 04:17:10;;;;;;;0.60;0.35;;;;;;;;;;5093758;28;20064;-67
2022/11/19 04:19:35;;;;;;;3.20;0.38;;;;;;;;;;5093957;28;20051;-70
2022/11/19 04:22:01;;;;;;;0.63;0.40;;;;;;;;;;5094149;28;20020;-68
2022/11/19 04:24:26;;;;;;;0.77;0.10;;;;;;;;;;5093909;28;20020;-68
2022/11/19 04:26:51;;;;;;;2.75;0.20;;;;;;;;;;5094287;28;20095;-69
2022/11/19 04:29:17;;;;;;;4.05;0.40;;;;;;;;;;5093762;28;20047;-68
2022/11/19 04:31:42;;;;;;;0.95;0.40;;;;;;;;;;5093805;28;20024;-68
2022/11/19 04:34:08;;;;;;;1.55;0.40;;;;;;;;;;5093664;28;20016;-68
2022/11/19 04:36:33;;;;;;;0.55;0.20;;;;;;;;;;5093815;28;20024;-67
2022/11/19 04:38:59;;;;;;;0.85;0.20;;;;;;;;;;5109144;28;20391;-69
2022/11/19 04:41:24;;;;;;;1.83;0.50;;;;;;;;;;5109467;28;20019;-67
2022/11/19 04:43:50;;;;;;;2.20;0.32;;;;;;;;;;5093425;28;20150;-68
2022/11/19 04:46:15;;;;;;;0.80;0.32;;;;;;;;;;5109172;28;20043;-67
2022/11/19 04:48:41;;;;;;;1.58;0.45;;;;;;;;;;5109069;28;20012;-67
2022/11/19 04:51:06;;;;;;;0.93;0.35;;;;;;;;;;5108785;28;20074;-67
2022/11/19 04:53:32;;;;;;;1.20;0.57;;;;;;;;;;5109310;28;20476;-66
2022/11/19 04:55:58;;;;;;;0.63;0.30;;;;;;;;;;5093551;28;20557;-68
2022/11/19 04:58:23;;;;;;;0.57;0.32;;;;;;;;;;5093266;28;20118;-67
2022/11/19 05:00:48;;;;;;;1.23;0.52;;;;;;;;;;5093398;28;20044;-67
2022/11/19 05:03:14;;;;;;;0.85;0.43;;;;;;;;;;5092934;28;20419;-66
2022/11/19 05:05:39;;;;;;;0.93;0.30;;;;;;;;;;5093138;28;20095;-69
2022/11/19 05:08:05;;;;;;;1.20;0.50;;;;;;;;;;5093127;28;20020;-67
2022/11/19 05:10:31;;;;;;;0.60;0.47;;;;;;;;;;5093107;28;20020;-70
2022/11/19 05:12:56;;;;;;;1.58;0.30;;;;;;;;;;5092684;28;20020;-67
2022/11/19 05:15:21;;;;;;;0.63;0.20;;;;;;;;;;5092956;28;20073;-70
2022/11/19 05:17:47;;;;;;;1.73;0.30;;;;;;;;;;5092071;28;20032;-67
2022/11/19 05:20:13;;;;;;;0.77;0.22;;;;;;;;;;5093070;28;20016;-68
2022/11/19 05:22:38;;;;;;;1.42;0.35;;;;;;;;;;5092759;28;20020;-67
2022/11/19 05:25:03;;;;;;;0.80;0.30;;;;;;;;;;5092761;28;20460;-68
2022/11/19 05:27:29;;;;;;;0.60;0.30;;;;;;;;;;5093243;28;20028;-69
2022/11/19 05:29:54;;;;;;;1.35;0.30;;;;;;;;;;5108601;28;20427;-69
2022/11/19 05:32:20;;;;;;;0.30;0.20;;;;;;;;;;5092726;28;20422;-69
2022/11/19 05:34:45;;;;;;;1.70;0.40;;;;;;;;;;5108197;28;20016;-68
2022/11/19 05:37:10;;;;;;;1.13;0.38;;;;;;;;;;5092255;28;20121;-69
2022/11/19 05:39:36;;;;;;;0.55;0.20;;;;;;;;;;5092629;28;20098;-67
2022/11/19 05:42:01;;;;;;;0.80;0.43;;;;;;;;;;5092638;28;20027;-69
2022/11/19 05:44:26;;;;;;;1.33;0.30;;;;;;;;;;5108211;28;20031;-67
2022/11/19 05:46:52;;;;;;;1.08;0.47;;;;;;;;;;5092413;28;20016;-68
2022/11/19 05:49:18;;;;;;;2.28;0.63;;;;;;;;;;5092281;28;20053;-67
2022/11/19 05:51:44;;;;;;;1.25;0.60;;;;;;;;;;5092198;28;20177;-69
2022/11/19 05:54:10;;;;;;;1.30;0.40;;;;;;;;;;5092298;28;20473;-68
2022/11/19 05:56:35;;;;;;;1.70;0.43;;;;;;;;;;5092200;28;20085;-69
2022/11/19 05:59:00;;;;;;;0.63;0.30;;;;;;;;;;5092186;28;20465;-69
2022/11/19 06:01:26;;;;;;;0.60;0.30;;;;;;;;;;5092316;28;20380;-68
2022/11/19 06:03:52;;;;;;;0.88;0.38;;;;;;;;;;5092194;28;20024;-67
2022/11/19 06:06:17;;;;;;;0.40;0.10;;;;;;;;;;5107519;28;20020;-68
2022/11/19 06:08:42;;;;;;;0.57;0.38;;;;;;;;;;5091989;28;20024;-66
2022/11/19 06:11:46;;;;;;;1.08;0.30;;;;;;;;;;5092250;28;20500;-69
2022/11/19 06:13:53;;;;;;;0.30;0.10;;;;;;;;;;5091916;28;20078;-67
2022/11/19 06:16:19;;;;;;;0.30;0.20;;;;;;;;;;5091963;28;20028;-67
2022/11/19 06:18:44;;;;;;;0.90;0.50;;;;;;;;;;5091849;28;20012;-67
2022/11/19 06:21:09;;;;;;;2.10;0.40;;;;;;;;;;5092126;28;20464;-67
2022/11/19 06:23:35;;;;;;;2.42;0.38;;;;;;;;;;5107579;28;20384;-67
2022/11/19 06:26:00;;;;;;;0.65;0.45;;;;;;;;;;5107682;28;20065;-66
2022/11/19 06:28:25;;;;;;;3.17;0.38;;;;;;;;;;5092213;28;20143;-68
2022/11/19 06:30:51;;;;;;;1.75;0.28;;;;;;;;;;5096133;28;20053;-67
2022/11/19 06:33:16;;;;;;;1.00;0.40;;;;;;;;;;5095782;28;20020;-66
2022/11/19 06:35:41;;;;;;;1.65;0.22;;;;;;;;;;5096781;28;20016;-68
2022/11/19 06:38:07;;;;;;;1.48;0.50;;;;;;;;;;5112261;28;20028;-68
2022/11/19 06:40:33;;;;;;;1.52;0.40;;;;;;;;;;5111857;28;20051;-67
2022/11/19 06:42:58;;;;;;;1.25;0.45;;;;;;;;;;5095913;28;20017;-66
2022/11/19 06:45:24;;;;;;;0.40;0.30;;;;;;;;;;5095879;28;20107;-68
2022/11/19 06:47:49;;;;;;;0.73;0.30;;;;;;;;;;5095815;28;20020;-69
2022/11/19 06:50:15;;;;;;;2.45;0.70;;;;;;;;;;5111690;28;20027;-67
2022/11/19 06:52:40;;;;;;;1.13;0.10;;;;;;;;;;5095692;28;20085;-66
2022/11/19 06:55:06;;;;;;;1.60;0.60;;;;;;;;;;5095479;28;20457;-68
2022/11/19 06:57:31;;;;;;;1.38;0.55;;;;;;;;;;5095606;28;20389;-67
2022/11/19 06:59:57;;;;;;;0.50;0.30;;;;;;;;;;5095637;28;20012;-69
2022/11/19 07:02:22;;;;;;;0.52;0.15;;;;;;;;;;5095493;28;20019;-67
2022/11/19 07:04:48;;;;;;;1.13;0.65;;;;;;;;;;5096268;28;20070;-67
2022/11/19 07:07:13;;;;;;;1.88;0.47;;;;;;;;;;5095289;28;20023;-66
2022/11/19 07:09:39;;;;;;;1.67;0.60;;;;;;;;;;5095434;28;20012;-67
2022/11/19 07:12:05;;;;;;;0.70;0.47;;;;;;;;;;5095312;28;20016;-66
2022/11/19 07:14:30;;;;;;;0.90;0.50;;;;;;;;;;5095508;28;20096;-69
2022/11/19 07:16:56;;;;;;;0.50;0.30;;;;;;;;;;5110540;28;20086;-65
2022/11/19 07:19:21;;;;;;;1.77;0.50;;;;;;;;;;5095093;28;20024;-68
2022/11/19 07:21:47;;;;;;;1.30;0.60;;;;;;;;;;5094907;28;20020;-68
2022/11/19 07:24:14;;;;;;;3.15;1.23;;;;;;;;;;5095211;28;20027;-68
2022/11/19 07:26:40;;;;;;;1.05;0.50;;;;;;;;;;5095008;28;20028;-68
2022/11/19 07:29:06;;;;;;;2.53;0.60;;;;;;;;;;5094716;28;20024;-67
2022/11/19 07:31:32;;;;;;;2.17;0.50;;;;;;;;;;5094616;28;20031;-66
2022/11/19 07:33:58;;;;;;;0.80;0.65;;;;;;;;;;5095091;28;20130;-67
2022/11/19 07:36:23;;;;;;;2.15;0.40;;;;;;;;;;5094950;28;20115;-67
2022/11/19 07:38:51;;;;;;;1.48;0.43;;;;;;;;;;5094799;28;20376;-68
2022/11/19 07:44:00;;;;;;;2.20;0.57;;;;;;;;;;5094696;28;20043;-67
2022/11/19 07:46:26;;;;;;;2.33;0.60;;;;;;;;;;5094637;28;20488;-66
2022/11/19 07:48:53;;;;;;;2.72;0.30;;;;;;;;;;5110314;28;20424;-66
2022/11/19 07:51:18;;;;;;;1.63;0.47;;;;;;;;;;5110101;28;20019;-67
2022/11/19 07:53:44;;;;;;;1.67;0.70;;;;;;;;;;5094302;28;20103;-67
2022/11/19 07:56:09;;;;;;;1.73;0.43;;;;;;;;;;5094694;28;20044;-66
2022/11/19 07:58:34;;;;;;;3.22;0.50;;;;;;;;;;5094538;28;20031;-68
2022/11/19 08:01:06;;;;;;;2.83;1.08;;;;;;;;;;5094222;28;20012;-69
2022/11/19 08:03:31;;;;;;;0.80;0.35;;;;;;;;;;5094711;28;20056;-67
2022/11/19 08:05:58;;;;;;;1.38;0.55;;;;;;;;;;5094428;28;20114;-67
2022/11/19 08:08:23;;;;;;;12.35;1.20;;;;;;;;;;5109602;28;20558;-68
2022/11/19 08:10:48;;;;;;;3.05;0.90;;;;;;;;;;5094225;28;20098;-67
2022/11/19 08:13:14;;;;;;;3.15;0.43;;;;;;;;;;5109285;28;20058;-69
2022/11/19 08:15:39;;;;;;;0.80;0.28;;;;;;;;;;5094128;28;20461;-69
2022/11/19 08:18:17;;;;;;;1.77;0.60;;;;;;;;;;5094084;28;20028;-67
2022/11/19 08:20:43;;;;;;;1.35;0.50;;;;;;;;;;5093983;28;20100;-69
2022/11/19 08:23:09;;;;;;;0.35;0.35;;;;;;;;;;5093642;28;20054;-67
2022/11/19 08:25:34;;;;;;;1.65;0.75;;;;;;;;;;5109358;28;20042;-68
2022/11/19 08:28:00;;;;;;;10.35;1.98;;;;;;;;;;5093637;28;20045;-68
2022/11/19 08:30:25;;;;;;;1.02;0.50;;;;;;;;;;5093717;28;20090;-69
2022/11/19 08:32:51;;;;;;;1.98;0.47;;;;;;;;;;5093715;28;20093;-66
2022/11/19 08:35:16;;;;;;;2.97;0.52;;;;;;;;;;5093356;28;20069;-66
2022/11/19 08:37:41;;;;;;;1.77;0.52;;;;;;;;;;5109124;28;20480;-68
2022/11/19 08:40:07;;;;;;;1.55;0.80;;;;;;;;;;5093408;28;20381;-67
2022/11/19 08:45:17;;;;;;;3.90;0.80;;;;;;;;;;5093244;28;20023;-67
2022/11/19 08:47:42;;;;;;;3.63;0.80;;;;;;;;;;5108764;28;20024;-67
2022/11/19 08:50:07;;;;;;;1.63;0.85;;;;;;;;;;5093598;28;20043;-67
2022/11/19 08:52:33;;;;;;;3.88;0.43;;;;;;;;;;5093115;28;20435;-68
2022/11/19 08:54:58;;;;;;;1.48;0.70;;;;;;;;;;5092697;28;20374;-67
2022/11/19 08:57:24;;;;;;;1.35;0.80;;;;;;;;;;5093393;28;20093;-68
2022/11/19 08:59:49;;;;;;;2.25;0.82;;;;;;;;;;5093296;28;20008;-68
2022/11/19 09:02:14;;;;;;;5.18;0.55;;;;;;;;;;5092817;28;20527;-69
2022/11/19 09:04:40;;;;;;;4.00;0.68;;;;;;;;;;5108557;28;20128;-68
2022/11/19 09:07:05;;;;;;;2.17;0.93;;;;;;;;;;5091250;28;20102;-69
2022/11/19 09:09:31;;;;;;;1.58;0.63;;;;;;;;;;5108625;28;20107;-68
2022/11/19 09:11:56;;;;;;;1.20;0.50;;;;;;;;;;5092964;28;20055;-68
2022/11/19 09:14:22;;;;;;;1.10;0.55;;;;;;;;;;5108312;28;20035;-68
2022/11/19 09:16:47;;;;;;;2.63;0.73;;;;;;;;;;5092688;28;20135;-68
2022/11/19 09:19:13;;;;;;;2.50;0.60;;;;;;;;;;5108112;28;20505;-68
2022/11/19 09:21:38;;;;;;;2.10;0.75;;;;;;;;;;5107844;28;20035;-69
2022/11/19 09:24:04;;;;;;;3.00;0.95;;;;;;;;;;5092749;28;20020;-67
2022/11/19 09:26:29;;;;;;;1.85;0.85;;;;;;;;;;5108582;28;20464;-68
2022/11/19 09:28:54;;;;;;;1.95;0.65;;;;;;;;;;5092508;28;20012;-68
2022/11/19 09:31:20;;;;;;;2.17;0.75;;;;;;;;;;5107619;28;20024;-68
2022/11/19 09:33:49;;;;;;;2.25;1.08;;;;;;;;;;5092273;28;20016;-68
2022/11/19 09:36:15;;;;;;;2.75;0.90;;;;;;;;;;5092183;28;20028;-67
2022/11/19 09:38:41;;;;;;;1.30;0.82;;;;;;;;;;5092028;28;20031;-66
2022/11/19 09:41:29;;;;;;;2.25;0.95;;;;;;;;;;5092190;28;20020;-67
2022/11/19 09:43:57;;;;;;;1.92;0.70;;;;;;;;;;5107722;28;20024;-68
2022/11/19 09:46:44;;;;;;;1.98;1.00;;;;;;;;;;5092092;28;20469;-68
2022/11/19 09:49:13;;;;;;;1.25;0.82;;;;;;;;;;5091778;28;20027;-68
2022/11/19 09:51:39;;;;;;;2.28;1.00;;;;;;;;;;5092239;28;20027;-67
2022/11/19 09:54:06;;;;;;;1.52;0.73;;;;;;;;;;5091936;28;20464;-67
2022/11/19 09:56:34;;;;;;;2.00;1.10;;;;;;;;;;5091576;28;20479;-67
2022/11/19 09:59:01;;;;;;;1.67;0.70;;;;;;;;;;5092117;28;20020;-67
2022/11/19 10:01:29;;;;;;;4.50;1.13;;;;;;;;;;5107540;28;20112;-67
2022/11/19 10:03:54;;;;;;;1.48;0.80;;;;;;;;;;5091548;28;20048;-69
2022/11/19 10:06:23;;;;;;;1.95;0.82;;;;;;;;;;5092297;28;20484;-68
2022/11/19 10:09:06;;;;;;;2.90;0.63;;;;;;;;;;5092147;28;20028;-68
2022/11/19 10:11:50;;;;;;;1.25;0.77;;;;;;;;;;5091681;28;20032;-67
2022/11/19 10:14:31;;;;;;;2.70;1.00;;;;;;;;;;5091532;28;20031;-67
2022/11/19 10:17:08;;;;;;;0.85;0.60;;;;;;;;;;5091740;28;20047;-70
2022/11/19 10:19:34;;;;;;;2.33;0.70;;;;;;;;;;5091558;28;20077;-67
2022/11/19 10:22:22;;;;;;;1.55;1.15;;;;;;;;;;5091779;28;20020;-67
2022/11/19 10:24:54;;;;;;;2.13;1.00;;;;;;;;;;5070810;28;20028;-68
2022/11/19 10:27:23;;;;;;;2.65;0.52;;;;;;;;;;5091572;28;20047;-71
2022/11/19 10:29:50;;;;;;;1.73;0.80;;;;;;;;;;5107501;28;20020;-66
2022/11/19 10:32:21;;;;;;;1.60;0.75;;;;;;;;;;5091835;28;20023;-70
2022/11/19 10:34:48;;;;;;;2.50;1.20;;;;;;;;;;5091368;28;20024;-68
2022/11/19 10:37:17;;;;;;;5.95;0.90;;;;;;;;;;5091852;28;20043;-69
2022/11/19 10:39:46;;;;;;;2.20;1.02;;;;;;;;;;5107565;28;20391;-69
2022/11/19 10:42:13;;;;;;;0.52;0.50;;;;;;;;;;5091780;28;20028;-70
2022/11/19 10:44:42;;;;;;;1.38;0.98;;;;;;;;;;5091756;28;20024;-68
2022/11/19 10:47:21;;;;;;;2.08;1.00;;;;;;;;;;5091213;28;20016;-68
2022/11/19 10:49:51;;;;;;;1.13;0.70;;;;;;;;;;5091716;28;20091;-68
2022/11/19 10:52:23;;;;;;;2.22;1.00;;;;;;;;;;5091456;28;20024;-68
2022/11/19 10:54:51;;;;;;;4.22;1.27;;;;;;;;;;5091282;28;20019;-69
2022/11/19 10:57:18;;;;;;;1.88;0.90;;;;;;;;;;5106452;28;20081;-67
2022/11/19 10:59:43;;;;;;;3.75;1.00;;;;;;;;;;5106811;28;20027;-69
2022/11/19 11:02:19;;;;;;;0.77;0.70;;;;;;;;;;5091102;28;20103;-68
2022/11/19 11:05:15;;;;;;;3.25;0.75;;;;;;;;;;5106710;28;20456;-68
2022/11/19 11:07:40;;;;;;;;;;;;;;;;;;5086987;28;20603;-69
2022/11/19 11:10:23;;;;;;;4.28;1.05;;;;;;;;;;5089886;28;19991;-69
2022/11/19 11:15:33;;;;;;;4.15;0.90;;;;;;;;;;5091060;28;20392;-69
2022/11/19 11:18:01;;;;;;;1.05;0.73;;;;;;;;;;5094521;28;20032;-68
2022/11/19 11:20:27;;;;;;;3.55;1.55;;;;;;;;;;5094865;28;20056;-69
2022/11/19 11:23:02;;;;;;;2.13;1.10;;;;;;;;;;5110224;28;20393;-68
2022/11/19 11:25:28;;;;;;;1.65;0.52;;;;;;;;;;5110580;28;20020;-67
2022/11/19 11:28:06;;;;;;;2.97;1.20;;;;;;;;;;5094550;28;20016;-69
2022/11/19 11:30:32;;;;;;;3.75;1.00;;;;;;;;;;5110067;28;20103;-69
2022/11/19 11:33:17;;;;;;;4.75;1.92;;;;;;;;;;5094227;28;20150;-69
2022/11/19 11:35:43;;;;;;;3.30;1.10;;;;;;;;;;5094380;28;20020;-67
2022/11/19 11:38:08;;;;;;;2.25;1.00;;;;;;;;;;5110128;28;20105;-69
2022/11/19 11:40:34;;;;;;;3.50;1.33;;;;;;;;;;5093752;28;20047;-70
2022/11/19 11:42:59;;;;;;;4.40;1.48;;;;;;;;;;5109329;28;20065;-67
2022/11/19 11:45:30;;;;;;;1.88;1.10;;;;;;;;;;5094104;28;20443;-68
2022/11/19 11:47:56;;;;;;;0.95;0.77;;;;;;;;;;5093398;28;20018;-70
2022/11/19 11:50:26;;;;;;;1.95;0.88;;;;;;;;;;5093720;28;20016;-70
2022/11/19 11:52:52;;;;;;;1.73;0.80;;;;;;;;;;5093590;28;20020;-70
2022/11/19 11:55:24;;;;;;;2.85;1.30;;;;;;;;;;5093082;28;20087;-67
2022/11/19 11:57:54;;;;;;;10.88;1.60;;;;;;;;;;5093815;28;20534;-65
2022/11/19 12:00:29;;;;;;;2.35;1.30;;;;;;;;;;5109167;28;20042;-67
2022/11/19 12:03:02;;;;;;;6.63;1.65;;;;;;;;;;5093682;28;20063;-64
2022/11/19 12:05:30;;;;;;;3.83;1.85;;;;;;;;;;5109025;28;20490;-66
2022/11/19 12:08:03;;;;;;;1.00;0.73;;;;;;;;;;5093820;28;20016;-66
2022/11/19 12:10:49;;;;;;;4.85;1.60;;;;;;;;;;5092993;28;20020;-67
2022/11/19 12:13:14;;;;;;;;;;;;;;;;;;5092552;28;20029;-70
2022/11/19 12:15:52;;;;;;;4.50;1.42;;;;;;;;;;5091920;28;19991;-62
2022/11/19 12:18:26;;;;;;;2.88;1.80;;;;;;;;;;5093161;28;20028;-64
2022/11/19 12:21:03;;;;;;;6.22;2.83;;;;;;;;;;5108858;28;20428;-64
2022/11/19 12:23:28;;;;;;;5.15;1.85;;;;;;;;;;5108874;28;20024;-63
2022/11/19 12:25:57;;;;;;;8.63;2.22;;;;;;;;;;5108416;28;20383;-63
2022/11/19 12:28:28;;;;;;;4.10;2.90;;;;;;;;;;5092214;28;20059;-62
2022/11/19 12:30:54;;;;;;;4.43;2.05;;;;;;;;;;5108742;28;20016;-61
2022/11/19 12:33:40;;;;;;;8.32;3.00;;;;;;;;;;5093045;28;20028;-61
2022/11/19 12:36:11;;;;;;;7.55;3.55;;;;;;;;;;5092893;28;20384;-62
2022/11/19 12:38:45;;;;;;;9.75;1.98;;;;;;;;;;5092925;28;20449;-62
2022/11/19 12:41:13;;;;;;;8.27;3.33;;;;;;;;;;5108444;28;20027;-62
2022/11/19 12:43:39;;;;;;;8.73;2.67;;;;;;;;;;5108351;28;20070;-59
2022/11/19 12:46:18;;;;;;;9.23;3.75;;;;;;;;;;5108193;28;20496;-58
2022/11/19 12:49:07;;;;;;;7.13;1.75;;;;;;;;;;5108186;28;20024;-59
2022/11/19 12:51:43;;;;;;;5.85;1.80;;;;;;;;;;5082153;28;20036;-58
2022/11/19 12:54:23;;;;;;;4.20;1.27;;;;;;;;;;5108024;28;20066;-58
2022/11/19 12:57:01;;;;;;;17.45;3.03;;;;;;;;;;5107568;28;20067;-62
2022/11/19 12:59:34;;;;;;;6.93;2.33;;;;;;;;;;5092774;28;20074;-61
2022/11/19 13:02:05;;;;;;;9.57;2.90;;;;;;;;;;5092788;28;20036;-62
2022/11/19 13:04:33;;;;;;;10.68;2.47;;;;;;;;;;5092395;28;20049;-63
2022/11/19 13:07:14;;;;;;;5.65;1.83;;;;;;;;;;5092056;28;20024;-63
2022/11/19 13:09:51;;;;;;;4.28;1.13;;;;;;;;;;5107682;28;20020;-62
2022/11/19 13:12:19;;;;;;;0.77;0.40;;;;;;;;;;5107902;28;20510;-63
2022/11/19 13:14:53;;;;;;;3.78;1.98;;;;;;;;;;5092158;28;20012;-62
2022/11/19 13:17:37;;;;;;;0.75;0.45;;;;;;;;;;5091858;28;20492;-63
2022/11/19 13:20:21;;;;;;;4.30;0.52;;;;;;;;;;5092194;28;20028;-63
2022/11/19 13:22:48;;;;;;;0.82;0.32;;;;;;;;;;5092037;28;20044;-63
2022/11/19 13:25:40;;;;;;;2.75;0.82;;;;;;;;;;5091613;28;20016;-62
2022/11/19 13:28:25;;;;;;;0.47;0.20;;;;;;;;;;5090770;28;20034;-61
2022/11/19 13:30:52;;;;;;;2.53;0.80;;;;;;;;;;5091345;28;20028;-64
2022/11/19 13:33:20;;;;;;;0.00;0.00;;;;;;;;;;5091563;28;20110;-65
2022/11/19 13:35:59;;;;;;;0.50;0.43;;;;;;;;;;5091691;28;20090;-64
2022/11/19 13:38:43;;;;;;;0.00;0.00;;;;;;;;;;5091041;28;20040;-62
2022/11/19 13:41:24;;;;;;;0.00;0.00;;;;;;;;;;5091773;28;20065;-62
2022/11/19 13:46:54;;;;;;;0.25;0.10;;;;;;;;;;5091574;28;20077;-60
2022/11/19 13:49:38;;;;;;;0.00;0.00;;;;;;;;;;5091739;28;20023;-60
2022/11/19 13:52:09;;;;;;;0.00;0.00;;;;;;;;;;5091502;28;20520;-60
2022/11/19 13:54:36;;;;;;;6.35;0.20;;;;;;;;;;5107018;28;20043;-60
2022/11/19 13:57:02;;;;;;;7.50;0.30;;;;;;;;;;5090981;28;20052;-59
2022/11/19 13:59:39;;;;;;;1.27;0.28;;;;;;;;;;5091819;28;20051;-62
2022/11/19 14:02:04;;;;;;;;;;;;;;;;;;5092124;28;20055;-59
2022/11/19 14:04:48;;;;;;;1.08;0.50;;;;;;;;;;5091869;28;20356;-61
2022/11/19 14:07:32;;;;;;;7.22;0.35;;;;;;;;;;5091568;28;20024;-59
2022/11/19 14:10:06;;;;;;;0.63;0.40;;;;;;;;;;5091640;28;20024;-59
2022/11/19 14:12:50;;;;;;;7.68;0.75;;;;;;;;;;5107372;28;20055;-59
2022/11/19 14:27:19;;;;;;;7.15;3.38;;;;;;;;;;5090873;28;20035;-58
2022/11/19 14:29:45;;;;;;;7.22;3.35;;;;;;;;;;5091364;28;20448;-59
2022/11/19 14:32:10;;;;;;;4.20;2.70;;;;;;;;;;5106986;28;20107;-59
2022/11/19 14:34:39;;;;;;;5.07;2.53;;;;;;;;;;5091636;28;20016;-56
2022/11/19 14:37:16;;;;;;;6.57;2.42;;;;;;;;;;5106888;28;20453;-58
2022/11/19 14:39:45;;;;;;;4.72;2.67;;;;;;;;;;5107647;28;20024;-59
2022/11/19 14:42:15;;;;;;;3.60;2.25;;;;;;;;;;5091745;28;20046;-57
2022/11/19 14:44:44;;;;;;;4.95;2.38;;;;;;;;;;5091499;28;20024;-61
2022/11/19 14:47:30;;;;;;;4.22;2.42;;;;;;;;;;5107140;28;20020;-59
2022/11/19 14:49:57;;;;;;;3.67;1.60;;;;;;;;;;5092239;28;20027;-58
2022/11/19 14:52:23;;;;;;;4.47;1.67;;;;;;;;;;5111032;28;20384;-59
2022/11/19 14:55:12;;;;;;;5.88;2.10;;;;;;;;;;5095601;28;20020;-59
2022/11/19 14:57:39;;;;;;;5.32;2.17;;;;;;;;;;5091766;28;20048;-60
2022/11/19 15:00:05;;;;;;;3.30;1.83;;;;;;;;;;5095365;28;20036;-60
2022/11/19 15:02:30;;;;;;;3.58;2.00;;;;;;;;;;5110982;28;20020;-61
2022/11/19 15:04:59;;;;;;;3.20;2.10;;;;;;;;;;5094769;28;20028;-60
2022/11/19 15:07:33;;;;;;;4.25;1.70;;;;;;;;;;5094937;28;20476;-59
2022/11/19 15:10:08;;;;;;;4.27;2.10;;;;;;;;;;5094931;28;20500;-61
2022/11/19 15:12:42;;;;;;;2.50;1.90;;;;;;;;;;5110706;28;20325;-60
2022/11/19 15:15:20;;;;;;;4.10;1.60;;;;;;;;;;5094444;28;20510;-61
2022/11/19 15:17:46;;;;;;;2.85;1.73;;;;;;;;;;5094328;28;20039;-60
2022/11/19 15:20:27;;;;;;;3.35;2.30;;;;;;;;;;5094544;28;20099;-61
2022/11/19 15:23:07;;;;;;;3.78;1.67;;;;;;;;;;5094727;28;20016;-60
2022/11/19 15:25:36;;;;;;;4.03;1.55;;;;;;;;;;5094911;28;20024;-60
2022/11/19 15:28:01;;;;;;;2.65;1.42;;;;;;;;;;5095199;28;20046;-59
2022/11/19 15:30:33;;;;;;;3.45;1.30;;;;;;;;;;5109898;28;20013;-59
2022/11/19 15:33:01;;;;;;;2.92;1.60;;;;;;;;;;5094057;28;20050;-60
2022/11/19 15:35:45;;;;;;;3.40;1.98;;;;;;;;;;5094396;28;20031;-58
2022/11/19 15:38:10;;;;;;;3.13;2.10;;;;;;;;;;5109773;28;20036;-59